Time;durP1;ratioP1;P1;durP2;ratioP2;P2;SDS_P1;SDS_P2;PMS_P1;PMS_P2;Temp;Humidity;BMP_temperature;BMP_pressure;BME280_temperature;BME280_humidity;BME280_pressure;Samples;Min_cycle;Max_cycle;Signal;HPM_P1;HPM_P2
2022/04/01 00:02:07;;;;;;;7.97;3.47;;;3.80;88.10;;;;;;5011199;28;20184;-88
2022/04/01 00:04:33;;;;;;;9.57;3.40;;;3.70;87.90;;;;;;5011928;28;20181;-87
2022/04/01 00:06:58;;;;;;;11.93;4.03;;;3.80;87.90;;;;;;5011082;28;20214;-87
2022/04/01 00:09:24;;;;;;;8.23;3.50;;;3.70;88.40;;;;;;5010692;28;20659;-88
2022/04/01 00:11:51;;;;;;;6.33;4.00;;;3.70;88.50;;;;;;5029154;28;20200;-88
2022/04/01 00:14:16;;;;;;;8.53;3.50;;;3.70;88.50;;;;;;5030451;28;20246;-89
2022/04/01 00:16:42;;;;;;;12.13;4.00;;;3.70;88.60;;;;;;5030388;28;20938;-88
2022/04/01 00:19:08;;;;;;;9.73;3.67;;;3.70;88.70;;;;;;5030203;28;20177;-87
2022/04/01 00:21:34;;;;;;;11.10;3.80;;;3.70;88.60;;;;;;5028567;28;20239;-90
2022/04/01 00:24:00;;;;;;;15.60;4.10;;;3.70;89.00;;;;;;5010101;28;20580;-89
2022/04/01 00:26:26;;;;;;;7.37;3.47;;;3.70;88.50;;;;;;5011532;28;20412;-87
2022/04/01 00:28:51;;;;;;;4.87;3.37;;;3.70;88.60;;;;;;5010451;28;20184;-90
2022/04/01 00:31:17;;;;;;;7.80;3.30;;;3.60;89.20;;;;;;5043272;28;20201;-87
2022/04/01 00:33:42;;;;;;;11.03;3.70;;;3.60;88.80;;;;;;5011650;28;20241;-86
2022/04/01 00:36:08;;;;;;;9.30;3.80;;;3.60;88.80;;;;;;5011693;28;20617;-87
2022/04/01 00:38:34;;;;;;;9.57;3.73;;;3.60;88.90;;;;;;5011358;28;20215;-87
2022/04/01 00:40:59;;;;;;;9.40;3.67;;;3.60;89.20;;;;;;5010331;28;20193;-88
2022/04/01 00:43:30;;;;;;;12.47;5.40;;;3.60;89.60;;;;;;5010121;28;20211;-89
2022/04/01 00:45:57;;;;;;;11.40;3.50;;;3.60;89.80;;;;;;5010165;28;20225;-87
2022/04/01 00:48:23;;;;;;;6.70;4.40;;;3.50;89.80;;;;;;5009913;28;20423;-87
2022/04/01 00:50:49;;;;;;;8.70;4.30;;;3.50;89.90;;;;;;5010107;28;20459;-88
2022/04/01 00:53:17;;;;;;;10.03;4.00;;;3.50;90.10;;;;;;5042822;28;20935;-87
2022/04/01 00:55:43;;;;;;;9.17;4.30;;;3.50;90.40;;;;;;5043146;28;20724;-88
2022/04/01 00:58:09;;;;;;;9.13;3.90;;;3.50;90.60;;;;;;5042956;28;20562;-87
2022/04/01 01:00:36;;;;;;;10.17;3.90;;;3.50;90.30;;;;;;5010857;28;20718;-87
2022/04/01 01:03:03;;;;;;;9.20;4.30;;;3.50;90.50;;;;;;5009808;28;20793;-86
2022/04/01 01:05:30;;;;;;;11.10;4.37;;;3.50;90.60;;;;;;5009583;28;20420;-87
2022/04/01 01:07:57;;;;;;;10.37;4.00;;;3.50;90.40;;;;;;5009852;28;20420;-88
2022/04/01 01:10:23;;;;;;;8.53;4.60;;;3.50;90.70;;;;;;5014321;28;20525;-87
2022/04/01 01:12:49;;;;;;;8.07;4.00;;;3.50;90.60;;;;;;5029476;28;20562;-87
2022/04/01 01:15:18;;;;;;;15.27;5.27;;;3.50;90.50;;;;;;5029106;28;20455;-88
2022/04/01 01:17:45;;;;;;;10.33;3.90;;;3.50;90.60;;;;;;5029493;28;20474;-89
2022/04/01 01:20:14;;;;;;;7.43;4.73;;;3.50;90.90;;;;;;5028741;28;20980;-89
2022/04/01 01:22:41;;;;;;;12.50;3.70;;;3.50;90.90;;;;;;5019108;28;20432;-88
2022/04/01 01:25:08;;;;;;;9.00;3.87;;;3.50;90.80;;;;;;5042279;28;20412;-87
2022/04/01 01:27:34;;;;;;;6.97;4.23;;;3.50;91.00;;;;;;5042469;28;20945;-88
2022/04/01 01:30:02;;;;;;;10.03;3.70;;;3.50;91.00;;;;;;5009143;28;20494;-88
2022/04/01 01:32:29;;;;;;;9.97;3.80;;;3.50;91.10;;;;;;5009129;28;20188;-87
2022/04/01 01:34:55;;;;;;;8.30;4.57;;;3.40;91.10;;;;;;5009283;28;20416;-88
2022/04/01 01:37:20;;;;;;;8.60;4.07;;;3.40;90.70;;;;;;5010226;28;20835;-87
2022/04/01 01:39:46;;;;;;;8.10;4.00;;;3.40;90.70;;;;;;5008902;28;20420;-88
2022/04/01 01:42:11;;;;;;;9.67;4.20;;;3.40;90.80;;;;;;5009064;28;20184;-88
2022/04/01 01:44:37;;;;;;;7.20;4.10;;;3.40;90.30;;;;;;5009032;28;20181;-88
2022/04/01 01:47:04;;;;;;;6.93;3.47;;;3.40;90.40;;;;;;5009031;28;20209;-88
2022/04/01 01:49:29;;;;;;;5.60;3.23;;;3.40;90.10;;;;;;5009794;28;20217;-88
2022/04/01 01:54:42;;;;;;;10.10;3.80;;;3.40;89.90;;;;;;5010150;28;20195;-87
2022/04/01 01:57:08;;;;;;;15.30;3.50;;;3.40;89.60;;;;;;5010150;28;20456;-87
2022/04/01 01:59:34;;;;;;;12.97;4.13;;;3.40;89.20;;;;;;5008856;28;20777;-88
2022/04/01 02:02:02;;;;;;;10.07;3.17;;;3.40;88.80;;;;;;5008911;28;20644;-87
2022/04/01 02:04:28;;;;;;;6.70;3.50;;;3.40;88.40;;;;;;5008710;28;20408;-89
2022/04/01 02:06:53;;;;;;;5.13;2.80;;;3.30;87.80;;;;;;5008922;28;20987;-87
2022/04/01 02:09:19;;;;;;;6.67;3.40;;;3.30;87.40;;;;;;5008944;28;20276;-87
2022/04/01 02:11:44;;;;;;;5.67;3.87;;;3.30;86.80;;;;;;5024857;28;20223;-88
2022/04/01 02:14:11;;;;;;;6.97;3.40;;;3.30;86.10;;;;;;5028420;28;20172;-87
2022/04/01 02:16:38;;;;;;;5.50;3.63;;;3.30;85.60;;;;;;5029255;28;20176;-86
2022/04/01 02:19:03;;;;;;;13.03;4.20;;;3.30;85.00;;;;;;5029416;28;20408;-88
2022/04/01 02:21:30;;;;;;;10.73;4.07;;;3.20;84.60;;;;;;5026121;28;20861;-88
2022/04/01 02:23:55;;;;;;;6.83;3.37;;;3.20;84.40;;;;;;5007979;28;20173;-88
2022/04/01 02:26:21;;;;;;;9.33;4.17;;;3.20;84.10;;;;;;5008552;28;20422;-88
2022/04/01 02:28:47;;;;;;;7.70;3.30;;;3.20;83.90;;;;;;5008090;28;20210;-88
2022/04/01 02:31:14;;;;;;;8.33;3.33;;;3.20;84.10;;;;;;5008138;28;20970;-88
2022/04/01 02:33:40;;;;;;;6.67;3.80;;;3.20;84.00;;;;;;5009458;28;20212;-88
2022/04/01 02:36:10;;;;;;;6.37;3.80;;;3.10;84.30;;;;;;5008350;28;20665;-88
2022/04/01 02:38:40;;;;;;;7.07;3.47;;;3.10;84.10;;;;;;5008227;28;20456;-88
2022/04/01 02:41:07;;;;;;;8.50;3.30;;;3.10;84.00;;;;;;5007624;28;20535;-87
2022/04/01 02:43:34;;;;;;;7.80;3.70;;;3.10;84.00;;;;;;5007944;28;20424;-88
2022/04/01 02:45:59;;;;;;;7.17;3.37;;;3.10;84.00;;;;;;5006183;28;20432;-88
2022/04/01 02:48:25;;;;;;;12.67;3.97;;;3.10;84.60;;;;;;5008227;28;20485;-88
2022/04/01 02:50:51;;;;;;;8.67;3.57;;;3.10;84.30;;;;;;5007993;28;20217;-90
2022/04/01 02:53:16;;;;;;;6.67;3.40;;;3.00;83.70;;;;;;5008062;28;20185;-88
2022/04/01 02:55:43;;;;;;;7.57;3.80;;;3.00;83.60;;;;;;5008048;28;20599;-87
2022/04/01 02:58:09;;;;;;;8.37;3.60;;;3.00;83.00;;;;;;5009232;28;20543;-87
2022/04/01 03:00:37;;;;;;;9.20;3.40;;;3.00;83.40;;;;;;5009142;28;20547;-88
2022/04/01 03:03:08;;;;;;;6.97;3.87;;;3.10;83.00;;;;;;5008043;28;20471;-88
2022/04/01 03:05:35;;;;;;;8.27;3.60;;;3.10;82.70;;;;;;5009002;28;20404;-86
2022/04/01 03:08:00;;;;;;;5.60;3.30;;;3.10;82.90;;;;;;5008081;28;20745;-88
2022/04/01 03:10:27;;;;;;;5.07;2.90;;;3.00;82.90;;;;;;5007696;28;20459;-86
2022/04/01 03:12:53;;;;;;;8.93;3.70;;;3.00;82.70;;;;;;5007335;28;20203;-87
2022/04/01 03:15:19;;;;;;;10.07;3.43;;;3.00;83.00;;;;;;5007875;28;20986;-89
2022/04/01 03:17:44;;;;;;;8.63;3.87;;;3.00;83.00;;;;;;5007966;28;20239;-88
2022/04/01 03:20:13;;;;;;;9.10;3.70;;;3.00;82.60;;;;;;5007268;28;20444;-86
2022/04/01 03:22:43;;;;;;;6.73;3.30;;;3.00;82.80;;;;;;5007937;28;20185;-87
2022/04/01 03:25:19;;;;;;;8.40;3.10;;;3.00;82.90;;;;;;5007537;28;20973;-87
2022/04/01 03:27:45;;;;;;;11.30;3.47;;;3.00;82.90;;;;;;5007341;28;20451;-87
2022/04/01 03:30:11;;;;;;;7.40;3.77;;;3.00;83.10;;;;;;5007863;28;20440;-87
2022/04/01 03:32:38;;;;;;;7.80;3.60;;;3.00;83.30;;;;;;5009389;28;20439;-86
2022/04/01 03:35:07;;;;;;;8.23;3.30;;;3.00;82.70;;;;;;5011453;28;20455;-88
2022/04/01 03:37:33;;;;;;;5.87;3.37;;;3.00;82.40;;;;;;5011730;28;20946;-87
2022/04/01 03:40:00;;;;;;;7.40;2.97;;;3.00;82.60;;;;;;5012737;28;20503;-87
2022/04/01 03:42:31;;;;;;;6.50;4.37;;;3.00;83.00;;;;;;5011411;28;20424;-89
2022/04/01 03:44:59;;;;;;;5.73;3.20;;;3.00;83.40;;;;;;5012400;28;20937;-88
2022/04/01 03:47:40;;;;;;;7.50;3.40;;;2.90;83.50;;;;;;5011362;28;20428;-88
2022/04/01 03:50:09;;;;;;;8.90;3.27;;;2.90;83.60;;;;;;5012611;28;20435;-88
2022/04/01 03:52:35;;;;;;;10.13;3.83;;;2.90;83.90;;;;;;5011117;28;20420;-88
2022/04/01 03:55:06;;;;;;;9.13;3.10;;;2.90;83.70;;;;;;5044190;28;20435;-88
2022/04/01 03:57:39;;;;;;;9.03;3.70;;;2.90;83.70;;;;;;5012140;28;20513;-88
2022/04/01 04:00:12;;;;;;;5.23;3.30;;;2.80;83.70;;;;;;5011285;28;20870;-88
2022/04/01 04:02:40;;;;;;;5.27;3.53;;;2.80;83.00;;;;;;5044439;28;20419;-88
2022/04/01 04:05:09;;;;;;;9.40;4.00;;;2.80;83.30;;;;;;5011116;28;20416;-88
2022/04/01 04:07:35;;;;;;;9.83;3.93;;;2.80;83.80;;;;;;5012763;28;20416;-88
2022/04/01 04:10:03;;;;;;;8.53;3.30;;;2.80;83.80;;;;;;5013667;28;20486;-88
2022/04/01 04:12:30;;;;;;;9.13;3.33;;;2.80;83.60;;;;;;5030967;28;20494;-88
2022/04/01 04:14:57;;;;;;;6.07;3.40;;;2.80;83.70;;;;;;5030632;28;20518;-89
2022/04/01 04:17:44;;;;;;;4.73;3.07;;;2.70;83.50;;;;;;5030956;28;20463;-87
2022/04/01 04:20:33;;;;;;;7.13;3.37;;;2.70;83.70;;;;;;5009033;28;20996;-88
2022/04/01 04:23:48;;;;;;;6.13;3.57;;;2.70;83.80;;;;;;5007614;28;20475;-87
2022/04/01 04:26:43;;;;;;;6.60;3.60;;;2.70;83.90;;;;;;4995316;28;20904;-89
2022/04/01 04:29:12;;;;;;;6.77;4.23;;;2.70;83.90;;;;;;5008979;28;20776;-88
2022/04/01 04:31:42;;;;;;;6.93;3.40;;;2.70;84.10;;;;;;5006343;28;20436;-88
2022/04/01 04:34:11;;;;;;;8.73;3.67;;;2.70;84.20;;;;;;5001284;28;20448;-87
2022/04/01 04:36:41;;;;;;;7.97;3.23;;;2.70;84.10;;;;;;5005077;28;20443;-88
2022/04/01 04:39:15;;;;;;;4.80;3.10;;;2.70;84.30;;;;;;5000450;28;20464;-87
2022/04/01 04:41:42;;;;;;;4.53;2.80;;;2.70;84.70;;;;;;4996564;28;21043;-89
2022/04/01 04:44:10;;;;;;;9.30;3.30;;;2.60;84.50;;;;;;5002512;28;20558;-89
2022/04/01 04:46:42;;;;;;;11.70;3.40;;;2.60;84.20;;;;;;5003764;28;20415;-87
2022/04/01 04:49:09;;;;;;;7.20;3.43;;;2.60;84.20;;;;;;4996315;28;20424;-90
2022/04/01 04:51:35;;;;;;;10.90;3.80;;;2.60;83.80;;;;;;4995351;28;20445;-88
2022/04/01 04:54:03;;;;;;;6.60;3.20;;;2.60;83.90;;;;;;4999415;28;20423;-86
2022/04/01 04:56:30;;;;;;;6.20;3.30;;;2.60;83.80;;;;;;5007078;28;20420;-87
2022/04/01 04:58:56;;;;;;;5.37;3.20;;;2.60;83.90;;;;;;5001257;28;20527;-86
2022/04/01 05:01:54;;;;;;;4.00;2.80;;;2.60;84.00;;;;;;5000934;28;20441;-87
2022/04/01 05:04:46;;;;;;;8.03;3.70;;;2.60;84.20;;;;;;4998931;28;20413;-88
2022/04/01 05:07:26;;;;;;;3.20;2.70;;;2.60;84.40;;;;;;5008469;28;20983;-86
2022/04/01 05:10:08;;;;;;;6.40;3.50;;;2.60;84.90;;;;;;5010339;28;20419;-87
2022/04/01 05:13:02;;;;;;;6.70;3.20;;;2.60;85.20;;;;;;5009561;28;20460;-88
2022/04/01 05:15:30;;;;;;;7.27;3.17;;;2.60;85.20;;;;;;4999963;28;20428;-86
2022/04/01 05:18:14;;;;;;;7.10;3.40;;;2.60;85.00;;;;;;5009991;28;20547;-87
2022/04/01 05:20:52;;;;;;;15.60;3.97;;;2.60;85.40;;;;;;5009626;28;20467;-87
2022/04/01 05:23:48;;;;;;;9.73;3.53;;;2.60;85.10;;;;;;5010165;28;21073;-87
2022/04/01 05:26:15;;;;;;;4.90;2.60;;;2.60;85.30;;;;;;5009860;28;20420;-88
2022/04/01 05:28:46;;;;;;;10.80;3.77;;;2.50;85.40;;;;;;5009747;28;20439;-88
2022/04/01 05:31:28;;;;;;;6.30;3.10;;;2.50;85.40;;;;;;5020650;28;20439;-87
2022/04/01 05:34:13;;;;;;;8.33;3.27;;;2.50;84.90;;;;;;5022557;28;20507;-86
2022/04/01 05:36:39;;;;;;;4.23;3.10;;;2.50;85.30;;;;;;5009506;28;21053;-88
2022/04/01 05:39:05;;;;;;;7.00;2.90;;;2.50;84.90;;;;;;5009084;28;20464;-87
2022/04/01 05:41:31;;;;;;;9.90;3.60;;;2.50;85.20;;;;;;5009401;28;20455;-88
2022/04/01 05:43:57;;;;;;;4.20;2.97;;;2.50;84.80;;;;;;5011003;28;20240;-88
2022/04/01 05:46:25;;;;;;;7.80;3.57;;;2.40;84.50;;;;;;5014163;28;20222;-86
2022/04/01 05:48:53;;;;;;;7.10;3.37;;;2.40;84.80;;;;;;5028984;28;20431;-87
2022/04/01 05:51:19;;;;;;;3.97;2.73;;;2.40;85.10;;;;;;5030256;28;20985;-87
2022/04/01 05:53:47;;;;;;;4.60;3.00;;;2.40;84.70;;;;;;5030217;28;20502;-88
2022/04/01 05:56:14;;;;;;;6.33;3.37;;;2.40;85.00;;;;;;5030476;28;20495;-89
2022/04/01 05:58:40;;;;;;;7.40;3.10;;;2.40;84.90;;;;;;5029073;28;20463;-88
2022/04/01 06:01:21;;;;;;;8.20;3.50;;;2.40;84.30;;;;;;5028360;28;20794;-88
2022/04/01 06:04:14;;;;;;;7.50;3.33;;;2.40;84.70;;;;;;5029673;28;20434;-88
2022/04/01 06:06:42;;;;;;;5.60;3.13;;;2.40;84.80;;;;;;5029120;28;20407;-88
2022/04/01 06:09:52;;;;;;;7.30;3.40;;;2.40;85.10;;;;;;5028759;28;20476;-88
2022/04/01 06:12:29;;;;;;;7.43;3.10;;;2.40;85.50;;;;;;5029468;28;20514;-88
2022/04/01 06:15:08;;;;;;;6.57;3.37;;;2.40;86.00;;;;;;5028338;28;20944;-88
2022/04/01 06:18:01;;;;;;;7.00;3.40;;;2.40;85.50;;;;;;5028572;28;20932;-87
2022/04/01 06:20:28;;;;;;;5.00;3.03;;;2.40;85.40;;;;;;5029563;28;20470;-88
2022/04/01 06:23:10;;;;;;;7.70;3.70;;;2.40;85.90;;;;;;5016105;28;20857;-88
2022/04/01 06:25:43;;;;;;;5.70;3.60;;;2.40;85.60;;;;;;5008693;28;20526;-88
2022/04/01 06:28:24;;;;;;;6.73;3.57;;;2.40;86.20;;;;;;5009171;28;20954;-88
2022/04/01 06:30:50;;;;;;;7.50;3.70;;;2.30;85.90;;;;;;5041766;28;20477;-88
2022/04/01 06:33:49;;;;;;;7.80;3.60;;;2.30;85.80;;;;;;5042165;28;20428;-87
2022/04/01 06:36:24;;;;;;;7.30;4.10;;;2.30;86.20;;;;;;5008741;28;20417;-88
2022/04/01 06:38:58;;;;;;;6.17;3.03;;;2.20;86.30;;;;;;5023586;28;20519;-88
2022/04/01 06:41:30;;;;;;;9.10;3.80;;;2.20;86.40;;;;;;5029414;28;20937;-89
2022/04/01 06:43:55;;;;;;;5.67;3.23;;;2.20;86.50;;;;;;5028144;28;20415;-87
2022/04/01 06:46:21;;;;;;;12.13;3.87;;;2.20;86.60;;;;;;5028637;28;20512;-88
2022/04/01 06:48:49;;;;;;;9.53;3.90;;;2.30;86.80;;;;;;5028422;28;20268;-88
2022/04/01 06:51:15;;;;;;;8.60;3.13;;;2.30;86.90;;;;;;5028617;28;20197;-88
2022/04/01 06:53:41;;;;;;;5.80;3.73;;;2.30;87.20;;;;;;5028286;28;20514;-88
2022/04/01 06:56:09;;;;;;;6.37;3.13;;;2.30;86.90;;;;;;5028521;28;20477;-88
2022/04/01 06:58:35;;;;;;;7.13;3.53;;;2.30;86.50;;;;;;5029942;28;20487;-89
2022/04/01 07:01:02;;;;;;;6.93;3.70;;;2.30;86.30;;;;;;5028089;28;20509;-88
2022/04/01 07:03:28;;;;;;;9.33;3.50;;;2.30;86.40;;;;;;5028340;28;20973;-88
2022/04/01 07:05:55;;;;;;;6.03;3.23;;;2.20;86.70;;;;;;5028437;28;20500;-88
2022/04/01 07:08:21;;;;;;;6.03;3.30;;;2.20;87.10;;;;;;5032518;28;20164;-88
2022/04/01 07:10:47;;;;;;;5.17;3.23;;;2.20;87.10;;;;;;5032489;28;21060;-88
2022/04/01 07:13:12;;;;;;;10.57;3.60;;;2.20;87.00;;;;;;5034006;28;20421;-87
2022/04/01 07:15:38;;;;;;;12.60;4.00;;;2.20;87.00;;;;;;5032332;28;20172;-88
2022/04/01 07:18:04;;;;;;;12.43;4.23;;;2.20;87.00;;;;;;5032874;28;20211;-88
2022/04/01 07:20:30;;;;;;;4.73;3.03;;;2.20;86.60;;;;;;5032605;28;20270;-88
2022/04/01 07:22:55;;;;;;;6.67;3.10;;;2.20;87.10;;;;;;5020035;28;20423;-88
2022/04/01 07:25:22;;;;;;;7.50;3.50;;;2.20;87.50;;;;;;5012800;28;20184;-87
2022/04/01 07:27:49;;;;;;;7.80;3.70;;;2.20;86.50;;;;;;5012705;28;20205;-88
2022/04/01 07:30:17;;;;;;;5.03;3.47;;;2.20;86.00;;;;;;5013685;28;20498;-89
2022/04/01 07:32:43;;;;;;;5.17;2.93;;;2.20;86.40;;;;;;5012946;28;20474;-88
2022/04/01 07:35:11;;;;;;;6.97;3.73;;;2.20;86.60;;;;;;5013105;28;20420;-88
2022/04/01 07:37:37;;;;;;;6.00;3.13;;;2.20;86.30;;;;;;5018131;28;20561;-87
2022/04/01 07:40:05;;;;;;;6.73;3.50;;;2.20;86.20;;;;;;5022581;28;20513;-88
2022/04/01 07:42:31;;;;;;;10.60;3.83;;;2.20;86.50;;;;;;5023604;28;20419;-88
2022/04/01 07:44:56;;;;;;;7.83;3.87;;;2.30;86.20;;;;;;5030071;28;20442;-87
2022/04/01 07:47:23;;;;;;;5.13;3.80;;;2.30;86.20;;;;;;5031739;28;20470;-88
2022/04/01 07:49:50;;;;;;;6.17;3.30;;;2.40;85.10;;;;;;5030388;28;20585;-87
2022/04/01 07:52:18;;;;;;;5.77;3.43;;;2.40;85.40;;;;;;5029894;28;20442;-87
2022/04/01 07:54:44;;;;;;;8.80;3.90;;;2.40;85.60;;;;;;5030020;28;20976;-88
2022/04/01 07:57:12;;;;;;;7.60;3.77;;;2.50;85.20;;;;;;5030887;28;20415;-88
2022/04/01 07:59:38;;;;;;;6.23;3.27;;;2.50;85.50;;;;;;5031750;28;21012;-88
2022/04/01 08:02:06;;;;;;;7.83;3.87;;;2.40;85.70;;;;;;5031350;28;20432;-87
2022/04/01 08:04:32;;;;;;;7.60;3.57;;;2.40;86.70;;;;;;5031397;28;20411;-89
2022/04/01 08:06:58;;;;;;;7.10;3.63;;;2.50;87.50;;;;;;5031575;28;20552;-88
2022/04/01 08:09:24;;;;;;;6.40;3.30;;;2.40;87.20;;;;;;5031525;28;20169;-87
2022/04/01 08:11:51;;;;;;;12.53;3.60;;;2.40;87.60;;;;;;5031442;28;20434;-87
2022/04/01 08:14:19;;;;;;;8.30;3.93;;;2.40;87.40;;;;;;5031372;28;20501;-88
2022/04/01 08:16:46;;;;;;;5.03;3.33;;;2.30;88.00;;;;;;5031003;28;20502;-88
2022/04/01 08:19:12;;;;;;;8.57;3.63;;;2.30;88.10;;;;;;5029781;28;20572;-88
2022/04/01 08:21:37;;;;;;;10.10;4.33;;;2.30;88.10;;;;;;5028775;28;20522;-88
2022/04/01 08:24:04;;;;;;;10.10;4.27;;;2.40;87.30;;;;;;5011662;28;20914;-88
2022/04/01 08:26:29;;;;;;;8.93;4.70;;;2.40;88.10;;;;;;5011269;28;20201;-88
2022/04/01 08:28:55;;;;;;;7.90;3.33;;;2.40;87.90;;;;;;5012021;28;20490;-87
2022/04/01 08:31:21;;;;;;;10.10;4.80;;;2.40;88.00;;;;;;5010726;28;20573;-89
2022/04/01 08:33:47;;;;;;;12.10;3.93;;;2.30;88.30;;;;;;5011192;28;20185;-88
2022/04/01 08:36:14;;;;;;;6.87;3.70;;;2.30;89.10;;;;;;5010917;28;20235;-89
2022/04/01 08:38:40;;;;;;;9.30;4.43;;;2.20;89.90;;;;;;5023975;28;20451;-88
2022/04/01 08:41:07;;;;;;;6.50;4.30;;;2.20;90.70;;;;;;5030295;28;20435;-88
2022/04/01 08:43:39;;;;;;;8.63;4.17;;;2.20;91.10;;;;;;5030426;28;20855;-88
2022/04/01 08:46:07;;;;;;;13.40;4.33;;;2.10;91.30;;;;;;5030917;28;20491;-88
2022/04/01 08:48:33;;;;;;;9.40;4.27;;;2.10;91.60;;;;;;5030711;28;20431;-88
2022/04/01 08:50:59;;;;;;;6.40;3.40;;;2.10;91.70;;;;;;5030669;28;20489;-88
2022/04/01 08:53:25;;;;;;;10.70;4.70;;;2.00;91.80;;;;;;5030664;28;20412;-88
2022/04/01 08:55:53;;;;;;;7.23;4.03;;;2.00;92.10;;;;;;5031136;28;20913;-87
2022/04/01 08:58:20;;;;;;;7.70;4.70;;;2.00;92.20;;;;;;5030876;28;20754;-88
2022/04/01 09:00:57;;;;;;;6.70;3.90;;;1.90;91.90;;;;;;5030683;28;20439;-87
2022/04/01 09:03:23;;;;;;;8.63;3.93;;;2.00;92.20;;;;;;5032194;28;20482;-89
2022/04/01 09:05:56;;;;;;;5.83;3.53;;;2.00;92.10;;;;;;5030362;28;20502;-87
2022/04/01 09:08:27;;;;;;;9.10;4.33;;;2.10;92.10;;;;;;5030892;28;20288;-88
2022/04/01 09:11:02;;;;;;;10.00;4.50;;;2.10;91.10;;;;;;5029843;28;20526;-88
2022/04/01 09:13:31;;;;;;;7.20;3.30;;;2.20;90.20;;;;;;5031813;28;20472;-88
2022/04/01 09:15:57;;;;;;;5.13;2.73;;;2.20;90.80;;;;;;5030324;28;20469;-88
2022/04/01 09:18:54;;;;;;;7.83;3.53;;;2.20;91.00;;;;;;5030030;28;20454;-88
2022/04/01 09:21:25;;;;;;;6.60;3.90;;;2.20;92.30;;;;;;5013709;28;20554;-88
2022/04/01 09:23:50;;;;;;;6.57;4.53;;;2.20;93.20;;;;;;4990850;28;20421;-88
2022/04/01 09:26:36;;;;;;;6.57;3.73;;;2.00;93.50;;;;;;4991993;28;20414;-87
2022/04/01 09:29:02;;;;;;;9.07;3.87;;;1.90;94.70;;;;;;4990348;28;20178;-88
2022/04/01 09:31:37;;;;;;;9.90;4.00;;;1.90;95.90;;;;;;4989647;28;20434;-89
2022/04/01 09:34:10;;;;;;;8.17;3.50;;;1.90;95.90;;;;;;4990439;28;20427;-89
2022/04/01 09:36:37;;;;;;;12.00;4.50;;;1.90;96.30;;;;;;4990536;28;20424;-88
2022/04/01 09:39:14;;;;;;;7.57;3.17;;;1.80;96.80;;;;;;5022498;28;20883;-87
2022/04/01 09:41:46;;;;;;;7.33;4.07;;;1.80;97.30;;;;;;5029410;28;20426;-88
2022/04/01 09:44:15;;;;;;;9.93;3.70;;;1.80;97.30;;;;;;5029223;28;20423;-87
2022/04/01 09:47:11;;;;;;;6.37;3.70;;;1.70;97.30;;;;;;5029114;28;20407;-88
2022/04/01 09:49:42;;;;;;;8.53;4.07;;;1.70;97.30;;;;;;5012474;28;20423;-87
2022/04/01 09:52:12;;;;;;;6.57;4.13;;;1.70;97.30;;;;;;5029361;28;20427;-86
2022/04/01 09:54:46;;;;;;;7.37;3.60;;;1.70;97.30;;;;;;5029419;28;20421;-88
2022/04/01 09:57:13;;;;;;;6.67;3.87;;;1.70;97.30;;;;;;5028976;28;20601;-87
2022/04/01 09:59:41;;;;;;;10.70;3.63;;;1.70;97.30;;;;;;5029233;28;20803;-89
2022/04/01 10:02:07;;;;;;;5.23;3.13;;;1.70;97.30;;;;;;5028497;28;20467;-89
2022/04/01 10:04:32;;;;;;;4.87;3.30;;;1.80;97.30;;;;;;5028614;28;20435;-88
2022/04/01 10:07:00;;;;;;;6.17;3.67;;;1.90;97.30;;;;;;5028641;28;20172;-88
2022/04/01 10:09:27;;;;;;;5.50;3.53;;;1.90;97.30;;;;;;5028521;28;20524;-88
2022/04/01 10:11:52;;;;;;;6.83;3.70;;;2.00;97.30;;;;;;5028761;28;20605;-90
2022/04/01 10:14:26;;;;;;;6.20;3.53;;;2.00;97.30;;;;;;5028719;28;20855;-87
2022/04/01 10:16:55;;;;;;;5.53;3.37;;;2.10;97.30;;;;;;5028838;28;20428;-89
2022/04/01 10:19:29;;;;;;;9.37;4.17;;;2.20;97.30;;;;;;5028742;28;20832;-88
2022/04/01 10:21:55;;;;;;;5.93;3.77;;;2.30;97.30;;;;;;5024029;28;20881;-87
2022/04/01 10:24:32;;;;;;;6.20;4.00;;;2.30;96.60;;;;;;5008866;28;20474;-87
2022/04/01 10:27:04;;;;;;;6.37;3.37;;;2.40;96.30;;;;;;5008663;28;20423;-87
2022/04/01 10:29:31;;;;;;;6.97;3.57;;;2.50;96.70;;;;;;5008619;28;20934;-88
2022/04/01 10:32:19;;;;;;;8.10;4.03;;;2.60;95.90;;;;;;5009741;28;20731;-89
2022/04/01 10:34:46;;;;;;;8.43;3.30;;;2.70;96.50;;;;;;5009250;28;20494;-87
2022/04/01 10:37:16;;;;;;;6.60;3.40;;;2.80;96.30;;;;;;5010259;28;20428;-87
2022/04/01 10:39:59;;;;;;;6.87;3.50;;;2.80;95.00;;;;;;5028573;28;20451;-88
2022/04/01 10:42:34;;;;;;;9.67;3.27;;;2.70;94.10;;;;;;5027795;28;20415;-87
2022/04/01 10:45:04;;;;;;;6.80;4.03;;;2.70;94.10;;;;;;5028447;28;20560;-87
2022/04/01 10:53:54;;;;;;;6.00;3.07;;;3.00;94.10;;;;;;5029111;28;20469;-87
2022/04/01 10:56:22;;;;;;;4.50;3.23;;;3.10;93.70;;;;;;5028080;28;20419;-87
2022/04/01 10:59:08;;;;;;;22.00;3.33;;;3.30;94.10;;;;;;5028307;28;20200;-86
2022/04/01 11:01:39;;;;;;;8.90;3.10;;;3.40;93.80;;;;;;5027780;28;20442;-88
2022/04/01 11:04:16;;;;;;;7.53;4.40;;;3.30;93.20;;;;;;5027744;28;20411;-88
2022/04/01 11:07:00;;;;;;;5.63;3.10;;;3.40;93.90;;;;;;5027973;28;20481;-88
2022/04/01 11:09:34;;;;;;;6.07;4.23;;;3.30;92.60;;;;;;5028133;28;20422;-88
2022/04/01 11:12:15;;;;;;;6.20;3.40;;;3.30;92.10;;;;;;5027699;28;20406;-88
2022/04/01 11:14:53;;;;;;;7.90;4.67;;;3.20;91.70;;;;;;5027833;28;20403;-87
2022/04/01 11:17:20;;;;;;;6.23;3.90;;;3.30;91.90;;;;;;5028518;28;20415;-89
2022/04/01 11:20:09;;;;;;;11.17;4.30;;;3.20;91.80;;;;;;5028005;28;20415;-88
2022/04/01 11:22:47;;;;;;;6.90;3.30;;;3.20;92.20;;;;;;5018295;28;20443;-88
2022/04/01 11:25:33;;;;;;;8.77;3.40;;;3.20;92.60;;;;;;5007958;28;20408;-88
2022/04/01 11:28:05;;;;;;;8.83;3.90;;;3.20;93.60;;;;;;5008101;28;20448;-88
2022/04/01 11:30:41;;;;;;;5.27;3.50;;;3.20;94.10;;;;;;5007690;28;20468;-88
2022/04/01 11:33:13;;;;;;;8.93;2.90;;;3.30;93.90;;;;;;5007939;28;20419;-88
2022/04/01 11:35:41;;;;;;;6.43;3.70;;;3.30;93.40;;;;;;5009284;28;20409;-87
2022/04/01 11:38:16;;;;;;;9.03;3.70;;;3.40;92.80;;;;;;5008006;28;21290;-88
2022/04/01 11:40:43;;;;;;;16.13;3.23;;;3.40;92.30;;;;;;5007641;28;20957;-88
2022/04/01 11:43:14;;;;;;;6.43;3.43;;;3.40;92.40;;;;;;5007874;28;20412;-88
2022/04/01 11:45:57;;;;;;;6.20;2.93;;;3.40;92.10;;;;;;5007896;28;20420;-88
2022/04/01 11:48:26;;;;;;;9.67;3.93;;;3.50;92.60;;;;;;5009757;28;20823;-89
2022/04/01 11:51:14;;;;;;;4.80;3.27;;;3.60;91.50;;;;;;5007329;28;20498;-88
2022/04/01 11:53:43;;;;;;;5.40;3.47;;;3.70;91.00;;;;;;5009648;28;20442;-88
2022/04/01 11:56:10;;;;;;;4.57;2.97;;;3.80;90.30;;;;;;5011352;28;20490;-87
2022/04/01 11:58:56;;;;;;;11.83;3.63;;;3.90;89.50;;;;;;5011034;28;20468;-88
2022/04/01 12:01:34;;;;;;;4.93;3.03;;;4.00;88.10;;;;;;5011345;28;20435;-88
2022/04/01 12:04:08;;;;;;;5.30;3.43;;;4.10;87.90;;;;;;5010945;28;20498;-88
2022/04/01 12:09:27;;;;;;;6.43;3.47;;;4.30;87.70;;;;;;5012960;28;20457;-88
2022/04/01 12:11:52;;;;;;;3.43;2.90;;;4.30;87.00;;;;;;5011196;28;20482;-87
2022/04/01 12:14:27;;;;;;;9.43;3.10;;;4.40;86.00;;;;;;5010841;28;20458;-88
2022/04/01 12:16:53;;;;;;;5.87;3.30;;;4.50;86.80;;;;;;5011190;28;20184;-87
2022/04/01 12:19:22;;;;;;;6.53;3.00;;;4.60;86.60;;;;;;5010872;28;21064;-87
2022/04/01 12:21:56;;;;;;;4.97;2.63;;;4.70;85.20;;;;;;5010773;28;20553;-88
2022/04/01 12:24:25;;;;;;;6.80;3.40;;;4.70;84.30;;;;;;5043798;28;20473;-87
2022/04/01 12:26:51;;;;;;;6.30;3.47;;;4.80;84.90;;;;;;5010997;28;20861;-88
2022/04/01 12:29:22;;;;;;;7.00;3.50;;;4.90;84.10;;;;;;5010663;28;20543;-87
2022/04/01 12:32:00;;;;;;;5.67;2.80;;;4.90;83.00;;;;;;5010542;28;20205;-88
2022/04/01 12:34:26;;;;;;;4.43;2.60;;;4.90;82.20;;;;;;5010499;28;20416;-87
2022/04/01 12:36:56;;;;;;;7.00;3.20;;;5.00;81.70;;;;;;5011690;28;20772;-87
2022/04/01 12:39:22;;;;;;;6.10;2.70;;;5.10;82.10;;;;;;5029050;28;20471;-88
2022/04/01 12:42:09;;;;;;;5.27;3.03;;;5.20;80.50;;;;;;5029987;28;20443;-87
2022/04/01 12:44:39;;;;;;;6.10;2.80;;;5.20;80.00;;;;;;5029879;28;20422;-87
2022/04/01 12:47:05;;;;;;;3.90;2.70;;;5.20;79.40;;;;;;5030093;28;20416;-87
2022/04/01 12:49:33;;;;;;;4.53;3.00;;;5.30;79.50;;;;;;5029858;28;20423;-87
2022/04/01 12:52:14;;;;;;;5.20;2.63;;;5.40;78.30;;;;;;5029815;28;20703;-87
2022/04/01 12:54:49;;;;;;;5.43;3.10;;;5.40;78.80;;;;;;5029520;28;20775;-87
2022/04/01 12:57:16;;;;;;;3.57;2.53;;;5.50;78.80;;;;;;5030026;28;20417;-87
2022/04/01 12:59:45;;;;;;;5.13;2.87;;;5.70;79.40;;;;;;5029904;28;20502;-87
2022/04/01 13:02:16;;;;;;;4.60;2.67;;;5.80;78.90;;;;;;5029600;28;20451;-87
2022/04/01 13:04:42;;;;;;;5.50;2.37;;;5.80;78.10;;;;;;5028770;28;20825;-87
2022/04/01 13:07:12;;;;;;;8.83;3.03;;;5.90;77.90;;;;;;5029807;28;20414;-87
2022/04/01 13:09:48;;;;;;;6.53;2.53;;;6.00;76.90;;;;;;5029660;28;20850;-86
2022/04/01 13:12:15;;;;;;;6.27;2.57;;;6.00;76.70;;;;;;5029979;28;20415;-87
2022/04/01 13:14:41;;;;;;;5.30;3.20;;;6.00;75.50;;;;;;5029625;28;20698;-87
2022/04/01 13:17:25;;;;;;;6.93;2.80;;;6.10;75.90;;;;;;5029794;28;20827;-87
2022/04/01 13:19:51;;;;;;;7.00;2.90;;;6.10;74.70;;;;;;5029503;28;20211;-86
2022/04/01 13:22:16;;;;;;;5.13;3.10;;;6.10;75.30;;;;;;5022402;28;20492;-87
2022/04/01 13:24:48;;;;;;;6.20;2.40;;;6.20;74.80;;;;;;5042704;28;20696;-87